Keswick, Virginia
Current Conditions -  °F | °C
As of 12:53 PM on Thursday 29 Jan 2015 (Local Time) from KCHO Reporting Station
Broken Clouds Broken Clouds  
Wind Chill: 33°   Ceiling: 20000
Heat Index: 40°   Visibility: 10mi
Dew Point:   Wind: 12mph
Humidity: 28%   Direction: 200°SSW
Pressure: 30.14"   Gusts: 18mph
Location:  38.05°N, 78.33°W
Report Text: KCHO 291753Z 20010G16KT 10SM SCT090 BKN200 04/M13 A3014 RMK AO2 SLP209 T00441128 10044 21050 58045
Loading
Personal Weather Stations






























Interactive Weather Map New forecast layout! Learn more

10-Day Weather Forecast

Advertisements
Track Severe Weather on mobile